createdAt,value
2018-05-01T00:01:54.652Z,97422
2018-05-01T00:04:24.217Z,97416
2018-05-01T00:06:53.066Z,97417
2018-05-01T00:09:22.642Z,97412
2018-05-01T00:11:54.120Z,97408
2018-05-01T00:14:23.706Z,97419
2018-05-01T00:16:52.600Z,97417
2018-05-01T00:19:22.139Z,97424
2018-05-01T00:21:51.075Z,97415
2018-05-01T00:24:19.900Z,97413
2018-05-01T00:26:49.466Z,97410
2018-05-01T00:29:18.284Z,97418
2018-05-01T00:31:53.365Z,97418
2018-05-01T00:34:22.165Z,97410
2018-05-01T00:36:51.750Z,97401
2018-05-01T00:39:20.547Z,97399
2018-05-01T00:41:49.366Z,97402
2018-05-01T00:44:18.172Z,97414
2018-05-01T00:46:47.760Z,97422
2018-05-01T00:49:16.559Z,97406
2018-05-01T00:51:45.399Z,97397
2018-05-01T00:54:14.962Z,97404
2018-05-01T00:56:44.217Z,97400
2018-05-01T00:59:13.052Z,97401
2018-05-01T01:01:42.373Z,97409
2018-05-01T01:04:11.165Z,97409
2018-05-01T01:06:39.985Z,97407
2018-05-01T01:09:08.807Z,97410
2018-05-01T01:11:38.517Z,97406
2018-05-01T01:14:08.175Z,97407
2018-05-01T01:16:37.001Z,97412
2018-05-01T01:19:06.887Z,97409
2018-05-01T01:21:36.039Z,97409
2018-05-01T01:24:04.917Z,97408
2018-05-01T01:26:33.849Z,97402
2018-05-01T01:29:02.857Z,97408
2018-05-01T01:31:31.935Z,97409
2018-05-01T01:34:01.081Z,97413
2018-05-01T01:36:30.201Z,97414
2018-05-01T01:38:59.195Z,97420
2018-05-01T01:41:27.735Z,97417
2018-05-01T01:43:55.837Z,97422
2018-05-01T01:46:24.922Z,97418
2018-05-01T01:48:53.042Z,97427
2018-05-01T01:51:22.249Z,97423
2018-05-01T01:53:50.511Z,97427
2018-05-01T01:56:19.770Z,97422
2018-05-01T01:58:48.863Z,97426
2018-05-01T02:01:16.983Z,97429
2018-05-01T02:03:46.051Z,97429
2018-05-01T02:06:15.199Z,97426
2018-05-01T02:08:44.375Z,97421
2018-05-01T02:11:12.469Z,97419
2018-05-01T02:13:41.659Z,97420
2018-05-01T02:16:10.901Z,97425
2018-05-01T02:18:40.077Z,97426
2018-05-01T02:21:09.335Z,97430
2018-05-01T02:23:37.677Z,97428
2018-05-01T02:26:05.729Z,97431
2018-05-01T02:28:33.824Z,97435
2018-05-01T02:31:01.882Z,97435
2018-05-01T02:33:29.942Z,97433
2018-05-01T02:35:58.763Z,97436
2018-05-01T02:38:26.904Z,97440
2018-05-01T02:40:54.935Z,97437
2018-05-01T02:43:23.751Z,97441
2018-05-01T02:45:51.804Z,97447
2018-05-01T02:48:19.969Z,97447
2018-05-01T02:50:48.797Z,97437
2018-05-01T02:53:16.839Z,97442
2018-05-01T02:55:44.892Z,97440
2018-05-01T02:58:13.691Z,97447
2018-05-01T03:00:41.753Z,97446
2018-05-01T03:03:09.827Z,97445
2018-05-01T03:05:38.659Z,97459
2018-05-01T03:08:06.737Z,97447
2018-05-01T03:10:34.801Z,97452
2018-05-01T03:13:02.873Z,97458
2018-05-01T03:15:31.675Z,97462
2018-05-01T03:17:59.732Z,97461
2018-05-01T03:20:27.813Z,97463
2018-05-01T03:22:55.852Z,97463
2018-05-01T03:25:23.909Z,97458
2018-05-01T03:27:51.978Z,97470
2018-05-01T03:30:20.035Z,97467
2018-05-01T03:32:48.128Z,97464
2018-05-01T03:35:16.160Z,97470
2018-05-01T03:37:44.236Z,97471
2018-05-01T03:40:12.308Z,97473
2018-05-01T03:42:41.190Z,97476
2018-05-01T03:45:10.034Z,97480
2018-05-01T03:47:38.084Z,97483
2018-05-01T03:50:06.154Z,97484
2018-05-01T03:52:34.991Z,97479
2018-05-01T03:55:03.807Z,97489
2018-05-01T03:57:31.878Z,97501
2018-05-01T03:59:59.987Z,97505
2018-05-01T04:02:28.772Z,97503
2018-05-01T04:04:56.840Z,97503
2018-05-01T04:07:24.899Z,97505
2018-05-01T04:09:53.733Z,97501
2018-05-01T04:12:21.785Z,97499
2018-05-01T04:14:49.832Z,97502
2018-05-01T04:17:17.901Z,97506
2018-05-01T04:19:45.969Z,97508
2018-05-01T04:22:14.021Z,97512
2018-05-01T04:24:42.840Z,97517
2018-05-01T04:27:10.903Z,97516
2018-05-01T04:29:38.978Z,97522
2018-05-01T04:32:07.090Z,97538
2018-05-01T04:34:35.921Z,97550
2018-05-01T04:37:04.049Z,97551
2018-05-01T04:39:32.101Z,97559
2018-05-01T04:42:00.948Z,97580
2018-05-01T04:44:29.063Z,97581
2018-05-01T04:46:57.133Z,97586
2018-05-01T04:49:25.989Z,97588
2018-05-01T04:51:54.035Z,97595
2018-05-01T04:54:22.070Z,97603
2018-05-01T04:56:50.156Z,97610
2018-05-01T04:59:18.231Z,97621
2018-05-01T05:01:46.662Z,97617
2018-05-01T05:04:15.797Z,97623
2018-05-01T05:06:43.821Z,97632
2018-05-01T05:09:12.667Z,97632
2018-05-01T05:11:44.843Z,97637
2018-05-01T05:14:12.883Z,97637
2018-05-01T05:16:40.983Z,97636
2018-05-01T05:19:09.005Z,97629
2018-05-01T05:21:37.069Z,97638
2018-05-01T05:24:05.141Z,97641
2018-05-01T05:26:33.256Z,97638
2018-05-01T05:29:02.045Z,97643
2018-05-01T05:31:30.109Z,97648
2018-05-01T05:33:58.185Z,97652
2018-05-01T05:36:26.272Z,97660
2018-05-01T05:38:55.049Z,97660
2018-05-01T05:41:23.094Z,97662
2018-05-01T05:43:51.133Z,97666
2018-05-01T05:46:19.224Z,97666
2018-05-01T05:48:47.312Z,97675
2018-05-01T05:51:15.374Z,97685
2018-05-01T05:53:44.202Z,97687
2018-05-01T05:56:12.268Z,97690
2018-05-01T05:58:40.348Z,97699
2018-05-01T06:01:08.443Z,97704
2018-05-01T06:03:36.516Z,97711
2018-05-01T06:06:04.556Z,97704
2018-05-01T06:08:32.596Z,97710
2018-05-01T06:11:01.409Z,97713
2018-05-01T06:13:29.479Z,97720
2018-05-01T06:15:58.294Z,97724
2018-05-01T06:18:26.369Z,97722
2018-05-01T06:20:54.444Z,97731
2018-05-01T06:23:23.308Z,97741
2018-05-01T06:25:51.366Z,97748
2018-05-01T06:28:19.486Z,97744
2018-05-01T06:30:48.304Z,97744
2018-05-01T06:33:17.144Z,97744
2018-05-01T06:35:45.234Z,97748
2018-05-01T06:38:13.299Z,97753
2018-05-01T06:40:41.386Z,97756
2018-05-01T06:43:10.202Z,97759
2018-05-01T06:45:38.290Z,97748
2018-05-01T06:48:06.412Z,97758
2018-05-01T06:50:34.458Z,97756
2018-05-01T06:53:02.590Z,97757
2018-05-01T06:55:31.504Z,97757
2018-05-01T06:57:59.555Z,97757
2018-05-01T07:00:28.416Z,97759
2018-05-01T07:02:56.512Z,97761
2018-05-01T07:05:24.600Z,97758
2018-05-01T07:07:52.785Z,97770
2018-05-01T07:10:21.644Z,97762
2018-05-01T07:12:49.729Z,97767
2018-05-01T07:15:17.759Z,97769
2018-05-01T07:17:45.812Z,97772
2018-05-01T07:20:13.885Z,97772
2018-05-01T07:22:41.943Z,97771
2018-05-01T07:25:10.781Z,97786
2018-05-01T07:27:38.846Z,97783
2018-05-01T07:30:06.919Z,97790
2018-05-01T07:32:34.973Z,97794
2018-05-01T07:35:03.121Z,97795
2018-05-01T07:37:31.280Z,97807
2018-05-01T07:39:59.451Z,97807
2018-05-01T07:42:27.621Z,97800
2018-05-01T07:44:56.509Z,97802
2018-05-01T07:47:25.324Z,97801
2018-05-01T07:50:07.061Z,97806
2018-05-01T07:52:35.896Z,97813
2018-05-01T07:55:03.989Z,97817
2018-05-01T07:57:32.051Z,97821
2018-05-01T08:00:00.189Z,97824
2018-05-01T08:02:29.022Z,97821
2018-05-01T08:04:57.155Z,97832
2018-05-01T08:07:25.941Z,97832
2018-05-01T08:09:54.114Z,97835
2018-05-01T08:12:22.937Z,97844
2018-05-01T08:14:51.075Z,97848
2018-05-01T08:17:19.905Z,97841
2018-05-01T08:19:48.041Z,97843
2018-05-01T08:22:16.856Z,97847
2018-05-01T08:24:45.690Z,97843
2018-05-01T08:27:13.755Z,97844
2018-05-01T08:29:41.897Z,97848
2018-05-01T08:32:09.959Z,97858
2018-05-01T08:34:38.034Z,97853
2018-05-01T08:37:06.087Z,97859
2018-05-01T08:39:34.168Z,97853
2018-05-01T08:42:02.219Z,97853
2018-05-01T08:44:30.338Z,97851
2018-05-01T08:46:58.426Z,97852
2018-05-01T08:49:27.265Z,97849
2018-05-01T08:51:56.097Z,97850
2018-05-01T08:54:24.179Z,97855
2018-05-01T08:56:52.297Z,97858
2018-05-01T08:59:20.356Z,97848
2018-05-01T09:01:49.882Z,97853
2018-05-01T09:04:18.012Z,97856
2018-05-01T09:06:46.042Z,97861
2018-05-01T09:09:14.101Z,97864
2018-05-01T09:11:42.210Z,97868
2018-05-01T09:14:10.270Z,97863
2018-05-01T09:16:38.348Z,97852
2018-05-01T09:19:06.406Z,97850
2018-05-01T09:21:34.482Z,97843
2018-05-01T09:24:02.562Z,97845
2018-05-01T09:26:30.698Z,97846
2018-05-01T09:28:58.776Z,97852
2018-05-01T09:31:27.966Z,97855
2018-05-01T09:33:56.818Z,97853
2018-05-01T09:36:24.854Z,97878
2018-05-01T09:38:52.969Z,97890
2018-05-01T09:41:21.007Z,97901
2018-05-01T09:43:49.436Z,97909
2018-05-01T09:46:18.572Z,97908
2018-05-01T09:48:47.773Z,97908
2018-05-01T09:51:16.983Z,97908
2018-05-01T09:53:46.920Z,97907
2018-05-01T09:56:16.848Z,97911
2018-05-01T09:58:46.792Z,97923
2018-05-01T10:01:16.653Z,97923
2018-05-01T10:03:46.609Z,97925
2018-05-01T10:06:16.510Z,97928
2018-05-01T10:08:46.544Z,97928
2018-05-01T10:11:16.440Z,97922
2018-05-01T10:13:46.385Z,97919
2018-05-01T10:16:16.282Z,97915
2018-05-01T10:18:46.176Z,97917
2018-05-01T10:21:15.120Z,97914
2018-05-01T10:23:45.028Z,97919
2018-05-01T10:26:14.889Z,97924
2018-05-01T10:28:44.803Z,97923
2018-05-01T10:31:14.748Z,97915
2018-05-01T10:33:44.678Z,97912
2018-05-01T10:36:14.565Z,97920
2018-05-01T10:38:44.551Z,97918
2018-05-01T10:41:14.321Z,97914
2018-05-01T10:43:44.240Z,97909
2018-05-01T10:46:14.100Z,97912
2018-05-01T10:48:44.023Z,97909
2018-05-01T10:51:13.955Z,97912
2018-05-01T10:53:43.846Z,97913
2018-05-01T10:56:13.797Z,97909
2018-05-01T10:58:42.839Z,97915
2018-05-01T11:01:12.700Z,97918
2018-05-01T11:03:41.847Z,97920
2018-05-01T11:06:11.122Z,97928
2018-05-01T11:08:40.997Z,97929
2018-05-01T11:11:10.921Z,97917
2018-05-01T11:13:40.820Z,97907
2018-05-01T11:16:09.645Z,97912
2018-05-01T11:18:38.461Z,97914
2018-05-01T11:21:07.255Z,97907
2018-05-01T11:23:36.836Z,97896
2018-05-01T11:26:05.700Z,97897
2018-05-01T11:28:34.576Z,97894
2018-05-01T11:31:04.081Z,97899
2018-05-01T11:33:32.904Z,97892
2018-05-01T11:36:02.502Z,97906
2018-05-01T11:38:31.314Z,97896
2018-05-01T11:41:00.212Z,97886
2018-05-01T11:43:29.023Z,97884
2018-05-01T11:45:57.829Z,97878
2018-05-01T11:48:26.673Z,97880
2018-05-01T11:50:55.529Z,97869
2018-05-01T11:53:25.114Z,97869
2018-05-01T11:55:54.300Z,97870
2018-05-01T11:58:23.859Z,97873
2018-05-01T12:00:52.692Z,97860
2018-05-01T12:03:22.274Z,97875
2018-05-01T12:05:51.090Z,97869
2018-05-01T12:08:20.655Z,97875
2018-05-01T12:10:49.449Z,97874
2018-05-01T12:13:18.259Z,97865
2018-05-01T12:15:47.056Z,97862
2018-05-01T12:18:15.979Z,97873
2018-05-01T12:20:45.563Z,97882
2018-05-01T12:23:14.366Z,97877
2018-05-01T12:25:43.953Z,97887
2018-05-01T12:28:12.725Z,97890
2018-05-01T12:30:42.104Z,97890
2018-05-01T12:33:10.926Z,97883
2018-05-01T12:35:40.496Z,97888
2018-05-01T12:38:09.297Z,97885
2018-05-01T12:40:38.126Z,97877
2018-05-01T12:43:06.943Z,97879
2018-05-01T12:45:35.771Z,97877
2018-05-01T12:48:04.588Z,97873
2018-05-01T12:50:34.163Z,97876
2018-05-01T12:53:02.996Z,97876
2018-05-01T12:55:31.869Z,97883
2018-05-01T12:58:01.452Z,97873
2018-05-01T13:00:30.271Z,97877
2018-05-01T13:02:59.829Z,97876
2018-05-01T13:05:28.639Z,97866
2018-05-01T13:07:57.423Z,97867
2018-05-01T13:10:26.256Z,97860
2018-05-01T13:12:55.114Z,97874
2018-05-01T13:15:23.840Z,97865
2018-05-01T13:17:52.651Z,97854
2018-05-01T13:20:21.445Z,97866
2018-05-01T13:22:51.053Z,97868
2018-05-01T13:25:20.646Z,97860
2018-05-01T13:27:49.425Z,97869
2018-05-01T13:30:18.287Z,97859
2018-05-01T13:32:47.244Z,97863
2018-05-01T13:35:16.053Z,97865
2018-05-01T13:37:44.860Z,97871
2018-05-01T13:40:13.662Z,97853
2018-05-01T13:42:42.480Z,97853
2018-05-01T13:45:11.335Z,97847
2018-05-01T13:47:40.089Z,97845
2018-05-01T13:50:08.916Z,97847
2018-05-01T13:52:38.461Z,97849
2018-05-01T13:55:07.272Z,97840
2018-05-01T13:57:36.127Z,97847
2018-05-01T14:00:04.964Z,97843
2018-05-01T14:02:33.806Z,97845
2018-05-01T14:05:02.648Z,97839
2018-05-01T14:07:32.274Z,97836
2018-05-01T14:10:01.874Z,97837
2018-05-01T14:12:31.468Z,97836
2018-05-01T14:15:01.025Z,97834
2018-05-01T14:17:29.860Z,97833
2018-05-01T14:19:59.437Z,97834
2018-05-01T14:22:28.260Z,97832
2018-05-01T14:24:57.841Z,97824
2018-05-01T14:27:27.433Z,97817
2018-05-01T14:29:56.259Z,97811
2018-05-01T14:32:25.070Z,97817
2018-05-01T14:34:53.886Z,97813
2018-05-01T14:37:22.715Z,97822
2018-05-01T14:39:52.300Z,97820
2018-05-01T14:42:21.132Z,97814
2018-05-01T14:44:49.969Z,97821
2018-05-01T14:47:18.769Z,97811
2018-05-01T14:49:47.614Z,97817
2018-05-01T14:52:17.235Z,97814
2018-05-01T14:54:46.825Z,97811
2018-05-01T14:57:15.626Z,97813
2018-05-01T14:59:44.497Z,97809
2018-05-01T15:02:14.066Z,97804
2018-05-01T15:04:42.876Z,97807
2018-05-01T15:07:12.599Z,97806
2018-05-01T15:09:41.426Z,97807
2018-05-01T15:12:11.039Z,97801
2018-05-01T15:14:40.592Z,97796
2018-05-01T15:17:09.428Z,97787
2018-05-01T15:19:39.000Z,97787
2018-05-01T15:22:08.126Z,97783
2018-05-01T15:24:37.689Z,97784
2018-05-01T15:27:07.280Z,97782
2018-05-01T15:29:36.125Z,97781
2018-05-01T15:32:04.935Z,97784
2018-05-01T15:34:33.771Z,97763
2018-05-01T15:37:02.580Z,97758
2018-05-01T15:39:31.416Z,97763
2018-05-01T15:42:00.992Z,97765
2018-05-01T15:44:29.905Z,97760
2018-05-01T15:46:58.726Z,97761
2018-05-01T15:49:27.542Z,97765
2018-05-01T15:51:56.419Z,97751
2018-05-01T15:54:25.948Z,97757
2018-05-01T15:56:55.558Z,97748
2018-05-01T15:59:24.401Z,97771
2018-05-01T16:01:53.216Z,97766
2018-05-01T16:04:22.033Z,97756
2018-05-01T16:06:50.826Z,97765
2018-05-01T16:09:19.651Z,97778
2018-05-01T16:11:49.233Z,97774
2018-05-01T16:14:18.126Z,97779
2018-05-01T16:16:46.848Z,97783
2018-05-01T16:19:15.673Z,97781
2018-05-01T16:21:45.251Z,97776
2018-05-01T16:24:14.084Z,97779
2018-05-01T16:26:42.966Z,97777
2018-05-01T16:29:12.522Z,97782
2018-05-01T16:31:41.351Z,97780
2018-05-01T16:34:10.922Z,97782
2018-05-01T16:36:40.291Z,97790
2018-05-01T16:39:09.089Z,97786
2018-05-01T16:41:37.895Z,97785
2018-05-01T16:44:06.709Z,97786
2018-05-01T16:46:35.512Z,97779
2018-05-01T16:49:04.326Z,97778
2018-05-01T16:51:33.910Z,97776
2018-05-01T16:54:02.729Z,97773
2018-05-01T16:56:32.279Z,97783
2018-05-01T16:59:01.113Z,97782
2018-05-01T17:01:29.927Z,97784
2018-05-01T17:03:58.754Z,97784
2018-05-01T17:06:35.890Z,97793
2018-05-01T17:09:04.714Z,97806
2018-05-01T17:11:33.522Z,97797
2018-05-01T17:14:02.323Z,97800
2018-05-01T17:16:42.332Z,97805
2018-05-01T17:19:11.160Z,97804
2018-05-01T17:21:39.949Z,97804
2018-05-01T17:24:08.757Z,97801
2018-05-01T17:26:37.576Z,97804
2018-05-01T17:29:06.477Z,97818
2018-05-01T17:31:35.197Z,97816
2018-05-01T17:34:03.998Z,97816
2018-05-01T17:36:32.777Z,97822
2018-05-01T17:39:01.603Z,97822
2018-05-01T17:41:31.173Z,97819
2018-05-01T17:44:00.030Z,97833
2018-05-01T17:46:28.893Z,97845
2018-05-01T17:48:57.744Z,97844
2018-05-01T17:51:26.633Z,97849
2018-05-01T17:53:56.235Z,97842
2018-05-01T17:56:25.465Z,97842
2018-05-01T17:58:54.302Z,97840
2018-05-01T18:01:23.111Z,97843
2018-05-01T18:03:51.940Z,97849
2018-05-01T18:06:20.741Z,97862
2018-05-01T18:08:49.577Z,97859
2018-05-01T18:11:19.128Z,97859
2018-05-01T18:13:47.930Z,97858
2018-05-01T18:16:17.463Z,97865
2018-05-01T18:18:47.079Z,97862
2018-05-01T18:21:16.700Z,97867
2018-05-01T18:23:46.291Z,97866
2018-05-01T18:26:15.843Z,97866
2018-05-01T18:28:44.645Z,97868
2018-05-01T18:31:15.101Z,97868
2018-05-01T18:33:43.971Z,97881
2018-05-01T18:36:13.755Z,97871
2018-05-01T18:38:42.532Z,97872
2018-05-01T18:41:11.327Z,97873
2018-05-01T18:43:40.926Z,97877
2018-05-01T18:46:09.735Z,97863
2018-05-01T18:48:38.552Z,97872
2018-05-01T18:51:09.071Z,97874
2018-05-01T18:53:38.694Z,97879
2018-05-01T18:56:08.282Z,97877
2018-05-01T18:58:37.880Z,97875
2018-05-01T19:01:06.702Z,97879
2018-05-01T19:03:36.298Z,97879
2018-05-01T19:06:05.097Z,97872
2018-05-01T19:08:33.963Z,97873
2018-05-01T19:11:02.848Z,97881
2018-05-01T19:13:32.467Z,97879
2018-05-01T19:16:01.270Z,97879
2018-05-01T19:18:30.146Z,97885
2018-05-01T19:20:59.688Z,97887
2018-05-01T19:23:28.512Z,97892
2018-05-01T19:25:57.379Z,97896
2018-05-01T19:28:26.229Z,97896
2018-05-01T19:30:55.804Z,97900
2018-05-01T19:33:24.657Z,97902
2018-05-01T19:35:53.455Z,97906
2018-05-01T19:38:23.793Z,97904
2018-05-01T19:40:52.595Z,97899
2018-05-01T19:43:21.425Z,97903
2018-05-01T19:45:50.249Z,97911
2018-05-01T19:48:19.179Z,97912
2018-05-01T19:50:48.163Z,97915
2018-05-01T19:53:16.953Z,97908
2018-05-01T19:55:46.533Z,97912
2018-05-01T19:58:15.454Z,97920
2018-05-01T20:00:45.017Z,97924
2018-05-01T20:03:13.925Z,97929
2018-05-01T20:05:43.601Z,97926
2018-05-01T20:08:13.169Z,97928
2018-05-01T20:10:42.671Z,97924
2018-05-01T20:13:11.607Z,97925
2018-05-01T20:15:41.225Z,97931
2018-05-01T20:18:10.009Z,97937
2018-05-01T20:20:39.637Z,97944
2018-05-01T20:23:08.447Z,97941
2018-05-01T20:25:37.261Z,97938
2018-05-01T20:28:06.158Z,97936
2018-05-01T20:30:35.754Z,97932
2018-05-01T20:33:04.558Z,97927
2018-05-01T20:35:34.996Z,97927
2018-05-01T20:38:03.816Z,97918
2018-05-01T20:40:32.644Z,97916
2018-05-01T20:43:01.465Z,97920
2018-05-01T20:45:30.253Z,97918
2018-05-01T20:47:59.113Z,97922
2018-05-01T20:50:28.718Z,97921
2018-05-01T20:52:58.326Z,97926
2018-05-01T20:55:27.873Z,97926
2018-05-01T20:57:57.483Z,97921
2018-05-01T21:00:27.045Z,97930
2018-05-01T21:02:55.869Z,97927
2018-05-01T21:05:25.490Z,97927
2018-05-01T21:07:54.306Z,97932
2018-05-01T21:10:23.910Z,97934
2018-05-01T21:12:53.445Z,97933
2018-05-01T21:15:22.299Z,97930
2018-05-01T21:17:51.108Z,97938
2018-05-01T21:20:19.974Z,97939
2018-05-01T21:22:48.853Z,97940
2018-05-01T21:25:17.801Z,97942
2018-05-01T21:27:46.641Z,97947
2018-05-01T21:30:15.445Z,97941
2018-05-01T21:32:44.282Z,97942
2018-05-01T21:35:13.835Z,97940
2018-05-01T21:37:42.680Z,97946
2018-05-01T21:40:11.512Z,97947
2018-05-01T21:42:41.087Z,97957
2018-05-01T21:45:09.911Z,97959
2018-05-01T21:47:39.502Z,97960
2018-05-01T21:50:08.301Z,97964
2018-05-01T21:52:37.097Z,97960
2018-05-01T21:55:06.535Z,97965
2018-05-01T21:57:36.122Z,97967
2018-05-01T22:00:04.940Z,97967
2018-05-01T22:02:33.749Z,97967
2018-05-01T22:05:02.599Z,97963
2018-05-01T22:07:31.425Z,97968
2018-05-01T22:10:00.378Z,97965
2018-05-01T22:12:29.209Z,97970
2018-05-01T22:14:58.813Z,97971
2018-05-01T22:17:27.632Z,97976
2018-05-01T22:20:06.988Z,97973
2018-05-01T22:22:36.598Z,97969
2018-05-01T22:25:06.165Z,97974
2018-05-01T22:27:34.960Z,97978
2018-05-01T22:30:04.528Z,97976
2018-05-01T22:32:33.325Z,97981
2018-05-01T22:35:02.258Z,97978
2018-05-01T22:37:31.084Z,97977
2018-05-01T22:39:59.921Z,97976
2018-05-01T22:42:29.520Z,97975
2018-05-01T22:44:58.394Z,97978
2018-05-01T22:47:27.205Z,97980
2018-05-01T22:50:05.596Z,97982
2018-05-01T22:52:34.527Z,97980
2018-05-01T22:55:04.130Z,97979
2018-05-01T22:57:32.952Z,97978
2018-05-01T23:00:01.752Z,97978
2018-05-01T23:02:30.631Z,97977
2018-05-01T23:05:00.185Z,97974
2018-05-01T23:07:29.754Z,97973
2018-05-01T23:09:58.560Z,97975
2018-05-01T23:12:27.372Z,97966
2018-05-01T23:14:56.176Z,97964
2018-05-01T23:17:24.994Z,97974
2018-05-01T23:20:05.550Z,97971
2018-05-01T23:22:35.123Z,97976
2018-05-01T23:25:03.896Z,97968
2018-05-01T23:27:32.726Z,97962
2018-05-01T23:30:01.510Z,97959
2018-05-01T23:32:31.124Z,97955
2018-05-01T23:35:00.679Z,97961
2018-05-01T23:37:29.531Z,97958
2018-05-01T23:39:58.440Z,97957
2018-05-01T23:42:28.024Z,97951
2018-05-01T23:44:56.811Z,97957
2018-05-01T23:47:26.364Z,97956
2018-05-01T23:50:05.547Z,97954
2018-05-01T23:52:35.115Z,97949
2018-05-01T23:55:03.950Z,97953
2018-05-01T23:57:32.747Z,97952
